sensor_id;sensor_type;location;lat;lon;timestamp;pressure;altitude;pressure_sealevel;temperature;humidity
35878;BME280;21982;49.804;24.072;2023-04-06T00:01:30;97169.94;;;1.05;63.67
35878;BME280;21982;49.804;24.072;2023-04-06T00:03:55;97167.75;;;1.00;63.29
35878;BME280;21982;49.804;24.072;2023-04-06T00:06:21;97104.22;;;0.61;63.67
35878;BME280;21982;49.804;24.072;2023-04-06T00:08:46;97162.94;;;0.96;63.51
35878;BME280;21982;49.804;24.072;2023-04-06T00:11:12;97148.63;;;0.90;63.58
35878;BME280;21982;49.804;24.072;2023-04-06T00:13:37;97118.53;;;0.67;63.50
35878;BME280;21982;49.804;24.072;2023-04-06T00:16:03;97146.28;;;0.87;63.79
35878;BME280;21982;49.804;24.072;2023-04-06T00:18:30;97002.22;;;-0.35;63.93
35878;BME280;21982;49.804;24.072;2023-04-06T00:20:56;97122.69;;;0.89;63.71
35878;BME280;21982;49.804;24.072;2023-04-06T00:23:21;97085.72;;;0.64;64.07
35878;BME280;21982;49.804;24.072;2023-04-06T00:25:47;97004.53;;;0.19;63.69
35878;BME280;21982;49.804;24.072;2023-04-06T00:28:12;97117.22;;;0.92;63.98
35878;BME280;21982;49.804;24.072;2023-04-06T00:30:37;97059.06;;;0.51;64.13
35878;BME280;21982;49.804;24.072;2023-04-06T00:33:03;97110.75;;;0.86;64.31
35878;BME280;21982;49.804;24.072;2023-04-06T00:35:28;97110.75;;;0.86;64.34
35878;BME280;21982;49.804;24.072;2023-04-06T00:37:54;97104.03;;;0.84;64.53
35878;BME280;21982;49.804;24.072;2023-04-06T00:40:19;97102.25;;;0.84;64.41
35878;BME280;21982;49.804;24.072;2023-04-06T00:42:45;97094.28;;;0.86;64.84
35878;BME280;21982;49.804;24.072;2023-04-06T00:45:10;96972.16;;;0.12;64.63
35878;BME280;21982;49.804;24.072;2023-04-06T00:47:35;96957.06;;;0.06;64.67
35878;BME280;21982;49.804;24.072;2023-04-06T00:50:01;97056.50;;;0.71;64.82
35878;BME280;21982;49.804;24.072;2023-04-06T00:52:27;96973.59;;;0.26;64.79
35878;BME280;21982;49.804;24.072;2023-04-06T00:54:52;96950.75;;;0.09;64.65
35878;BME280;21982;49.804;24.072;2023-04-06T00:57:18;97080.69;;;0.82;65.05
35878;BME280;21982;49.804;24.072;2023-04-06T00:59:44;97067.53;;;0.84;64.98
35878;BME280;21982;49.804;24.072;2023-04-06T01:02:10;96948.84;;;0.11;64.94
35878;BME280;21982;49.804;24.072;2023-04-06T01:04:36;97049.41;;;0.82;64.77
35878;BME280;21982;49.804;24.072;2023-04-06T01:07:01;96994.19;;;0.48;64.98
35878;BME280;21982;49.804;24.072;2023-04-06T01:09:28;97061.63;;;0.82;65.13
35878;BME280;21982;49.804;24.072;2023-04-06T01:11:54;97047.91;;;0.80;65.17
35878;BME280;21982;49.804;24.072;2023-04-06T01:14:21;96954.28;;;0.28;65.21
35878;BME280;21982;49.804;24.072;2023-04-06T01:16:47;96868.22;;;-0.20;65.36
35878;BME280;21982;49.804;24.072;2023-04-06T01:19:12;97037.03;;;0.75;65.17
35878;BME280;21982;49.804;24.072;2023-04-06T01:21:39;97030.63;;;0.79;65.19
35878;BME280;21982;49.804;24.072;2023-04-06T01:24:05;96926.41;;;0.19;65.56
35878;BME280;21982;49.804;24.072;2023-04-06T01:26:31;96946.47;;;0.38;65.58
35878;BME280;21982;49.804;24.072;2023-04-06T01:28:57;96998.78;;;0.75;65.81
35878;BME280;21982;49.804;24.072;2023-04-06T01:31:23;96859.88;;;-0.14;65.60
35878;BME280;21982;49.804;24.072;2023-04-06T01:33:49;97014.03;;;0.89;65.31
35878;BME280;21982;49.804;24.072;2023-04-06T01:36:15;97011.88;;;0.94;65.56
35878;BME280;21982;49.804;24.072;2023-04-06T01:38:41;97007.03;;;0.90;65.74
35878;BME280;21982;49.804;24.072;2023-04-06T01:41:07;97007.34;;;0.96;65.56
35878;BME280;21982;49.804;24.072;2023-04-06T01:43:32;96985.50;;;0.88;65.68
35878;BME280;21982;49.804;24.072;2023-04-06T01:45:58;96996.22;;;0.94;65.58
35878;BME280;21982;49.804;24.072;2023-04-06T01:48:23;96965.72;;;0.76;65.66
35878;BME280;21982;49.804;24.072;2023-04-06T01:50:48;96836.47;;;-0.14;65.22
35878;BME280;21982;49.804;24.072;2023-04-06T02:03:57;96918.00;;;0.56;65.47
35878;BME280;21982;49.804;24.072;2023-04-06T02:06:23;96923.63;;;0.71;65.49
35878;BME280;21982;49.804;24.072;2023-04-06T02:08:48;96854.75;;;0.25;65.94
35878;BME280;21982;49.804;24.072;2023-04-06T02:11:13;96942.69;;;0.81;65.92
35878;BME280;21982;49.804;24.072;2023-04-06T02:13:40;96932.28;;;0.90;65.85
35878;BME280;21982;49.804;24.072;2023-04-06T02:16:05;96925.81;;;0.85;65.94
35878;BME280;21982;49.804;24.072;2023-04-06T02:18:31;96818.81;;;0.09;65.97
35878;BME280;21982;49.804;24.072;2023-04-06T02:20:56;96907.97;;;0.71;65.87
35878;BME280;21982;49.804;24.072;2023-04-06T02:23:22;96864.50;;;0.42;65.95
35878;BME280;21982;49.804;24.072;2023-04-06T02:25:47;96922.94;;;0.88;66.36
35878;BME280;21982;49.804;24.072;2023-04-06T02:28:12;96887.13;;;0.71;65.90
35878;BME280;21982;49.804;24.072;2023-04-06T02:30:38;96820.09;;;0.24;66.24
35878;BME280;21982;49.804;24.072;2023-04-06T02:33:03;96917.59;;;0.99;66.35
35878;BME280;21982;49.804;24.072;2023-04-06T02:35:30;96913.91;;;1.02;66.30
35878;BME280;21982;49.804;24.072;2023-04-06T02:37:55;96858.47;;;0.71;65.99
35878;BME280;21982;49.804;24.072;2023-04-06T02:40:21;96820.91;;;0.44;66.23
35878;BME280;21982;49.804;24.072;2023-04-06T02:42:47;96802.25;;;0.39;66.13
35878;BME280;21982;49.804;24.072;2023-04-06T02:45:13;96903.34;;;1.03;66.53
35878;BME280;21982;49.804;24.072;2023-04-06T02:47:39;96898.78;;;1.05;66.34
35878;BME280;21982;49.804;24.072;2023-04-06T02:50:05;96896.84;;;1.07;66.08
35878;BME280;21982;49.804;24.072;2023-04-06T02:52:31;96876.16;;;0.96;66.05
35878;BME280;21982;49.804;24.072;2023-04-06T02:54:57;96800.63;;;0.57;66.17
35878;BME280;21982;49.804;24.072;2023-04-06T02:57:22;96876.69;;;1.09;66.60
35878;BME280;21982;49.804;24.072;2023-04-06T02:59:48;96856.28;;;0.95;66.62
35878;BME280;21982;49.804;24.072;2023-04-06T03:02:13;96762.66;;;0.36;66.54
35878;BME280;21982;49.804;24.072;2023-04-06T03:04:39;96800.06;;;0.63;66.63
35878;BME280;21982;49.804;24.072;2023-04-06T03:07:04;96873.66;;;1.04;66.77
35878;BME280;21982;49.804;24.072;2023-04-06T03:09:29;96806.94;;;0.64;66.25
35878;BME280;21982;49.804;24.072;2023-04-06T03:11:55;96873.78;;;1.12;66.33
35878;BME280;21982;49.804;24.072;2023-04-06T03:14:20;96685.66;;;0.04;66.81
35878;BME280;21982;49.804;24.072;2023-04-06T03:16:50;96883.81;;;1.26;66.81
35878;BME280;21982;49.804;24.072;2023-04-06T03:19:15;96803.88;;;0.79;66.57
35878;BME280;21982;49.804;24.072;2023-04-06T03:21:41;96794.59;;;0.66;66.01
35878;BME280;21982;49.804;24.072;2023-04-06T03:24:07;96862.00;;;1.18;66.51
35878;BME280;21982;49.804;24.072;2023-04-06T03:26:33;96830.34;;;1.03;66.51
35878;BME280;21982;49.804;24.072;2023-04-06T03:28:58;96882.00;;;1.37;66.58
35878;BME280;21982;49.804;24.072;2023-04-06T03:31:23;96830.72;;;1.08;66.28
35878;BME280;21982;49.804;24.072;2023-04-06T03:33:49;96807.56;;;0.86;66.59
35878;BME280;21982;49.804;24.072;2023-04-06T03:36:14;96885.84;;;1.32;66.47
35878;BME280;21982;49.804;24.072;2023-04-06T03:38:40;96884.75;;;1.35;66.70
35878;BME280;21982;49.804;24.072;2023-04-06T03:41:05;96885.28;;;1.39;66.46
35878;BME280;21982;49.804;24.072;2023-04-06T03:43:31;96745.38;;;0.54;66.06
35878;BME280;21982;49.804;24.072;2023-04-06T03:45:56;96778.97;;;0.66;66.15
35878;BME280;21982;49.804;24.072;2023-04-06T03:48:21;96876.25;;;1.23;66.97
35878;BME280;21982;49.804;24.072;2023-04-06T03:50:47;96884.91;;;1.24;66.40
35878;BME280;21982;49.804;24.072;2023-04-06T03:53:12;96858.97;;;1.22;66.58
35878;BME280;21982;49.804;24.072;2023-04-06T03:55:37;96809.91;;;0.89;66.21
35878;BME280;21982;49.804;24.072;2023-04-06T03:58:03;96851.56;;;1.18;66.67
35878;BME280;21982;49.804;24.072;2023-04-06T04:00:28;96801.13;;;0.90;66.91
35878;BME280;21982;49.804;24.072;2023-04-06T04:02:54;96837.28;;;1.12;66.90
35878;BME280;21982;49.804;24.072;2023-04-06T04:05:19;96833.16;;;1.19;66.89
35878;BME280;21982;49.804;24.072;2023-04-06T04:07:50;96757.53;;;0.73;66.73
35878;BME280;21982;49.804;24.072;2023-04-06T04:10:15;96684.00;;;0.22;67.03
35878;BME280;21982;49.804;24.072;2023-04-06T04:12:40;96821.94;;;1.09;67.35
35878;BME280;21982;49.804;24.072;2023-04-06T04:15:06;96727.28;;;0.52;67.00
35878;BME280;21982;49.804;24.072;2023-04-06T04:17:32;96809.28;;;1.14;67.30
35878;BME280;21982;49.804;24.072;2023-04-06T04:19:57;96809.56;;;1.11;66.99
35878;BME280;21982;49.804;24.072;2023-04-06T04:22:22;96756.97;;;0.79;67.53
35878;BME280;21982;49.804;24.072;2023-04-06T04:24:48;96767.25;;;0.90;67.76
35878;BME280;21982;49.804;24.072;2023-04-06T04:27:13;96802.16;;;1.07;67.51
35878;BME280;21982;49.804;24.072;2023-04-06T04:29:38;96778.84;;;1.05;67.25
35878;BME280;21982;49.804;24.072;2023-04-06T04:32:04;96792.28;;;1.10;67.51
35878;BME280;21982;49.804;24.072;2023-04-06T04:34:30;96765.03;;;0.95;67.37
35878;BME280;21982;49.804;24.072;2023-04-06T04:36:56;96783.22;;;1.14;67.80
35878;BME280;21982;49.804;24.072;2023-04-06T04:39:21;96687.91;;;0.55;67.32
35878;BME280;21982;49.804;24.072;2023-04-06T04:41:47;96768.94;;;1.18;67.49
35878;BME280;21982;49.804;24.072;2023-04-06T04:44:12;96784.84;;;1.15;67.43
35878;BME280;21982;49.804;24.072;2023-04-06T04:46:37;96786.50;;;1.16;67.54
35878;BME280;21982;49.804;24.072;2023-04-06T04:49:03;96805.16;;;1.21;67.99
35878;BME280;21982;49.804;24.072;2023-04-06T04:51:28;96816.41;;;1.22;68.10
35878;BME280;21982;49.804;24.072;2023-04-06T04:53:54;96820.78;;;1.31;67.43
35878;BME280;21982;49.804;24.072;2023-04-06T04:56:19;96797.06;;;1.24;67.75
35878;BME280;21982;49.804;24.072;2023-04-06T04:58:45;96774.16;;;1.18;67.91
35878;BME280;21982;49.804;24.072;2023-04-06T05:09:51;96843.06;;;1.53;66.97
35878;BME280;21982;49.804;24.072;2023-04-06T05:12:16;96742.41;;;0.95;67.36
35878;BME280;21982;49.804;24.072;2023-04-06T05:14:41;96693.34;;;0.72;66.93
35878;BME280;21982;49.804;24.072;2023-04-06T05:17:07;96813.69;;;1.51;67.28
35878;BME280;21982;49.804;24.072;2023-04-06T05:19:36;96632.28;;;0.47;67.52
35878;BME280;21982;49.804;24.072;2023-04-06T05:22:02;96749.94;;;1.36;67.70
35878;BME280;21982;49.804;24.072;2023-04-06T05:24:27;96786.78;;;1.50;67.43
35878;BME280;21982;49.804;24.072;2023-04-06T05:26:52;96780.88;;;1.48;67.65
35878;BME280;21982;49.804;24.072;2023-04-06T05:29:18;96774.31;;;1.44;67.05
35878;BME280;21982;49.804;24.072;2023-04-06T05:31:44;96728.13;;;1.27;67.73
35878;BME280;21982;49.804;24.072;2023-04-06T05:34:09;96692.22;;;1.11;67.71
35878;BME280;21982;49.804;24.072;2023-04-06T05:36:35;96693.47;;;1.07;67.32
35878;BME280;21982;49.804;24.072;2023-04-06T05:39:00;96519.22;;;0.03;67.96
35878;BME280;21982;49.804;24.072;2023-04-06T05:41:26;96542.19;;;0.17;67.80
35878;BME280;21982;49.804;24.072;2023-04-06T05:43:51;96620.84;;;0.67;68.06
35878;BME280;21982;49.804;24.072;2023-04-06T05:46:18;96595.16;;;0.72;67.85
35878;BME280;21982;49.804;24.072;2023-04-06T05:48:43;96515.31;;;0.26;67.64
35878;BME280;21982;49.804;24.072;2023-04-06T05:51:09;96610.56;;;0.93;67.28
35878;BME280;21982;49.804;24.072;2023-04-06T05:53:34;96703.25;;;1.60;67.93
35878;BME280;21982;49.804;24.072;2023-04-06T05:56:03;96609.25;;;1.07;67.38
35878;BME280;21982;49.804;24.072;2023-04-06T05:58:29;96607.31;;;1.09;67.82
35878;BME280;21982;49.804;24.072;2023-04-06T06:00:59;96690.28;;;1.68;67.17
35878;BME280;21982;49.804;24.072;2023-04-06T06:03:24;96684.97;;;1.60;67.96
35878;BME280;21982;49.804;24.072;2023-04-06T06:05:49;96663.25;;;1.42;68.25
35878;BME280;21982;49.804;24.072;2023-04-06T06:08:15;96720.44;;;1.53;68.31
35878;BME280;21982;49.804;24.072;2023-04-06T06:10:40;96770.16;;;1.79;67.85
35878;BME280;21982;49.804;24.072;2023-04-06T06:13:06;96679.84;;;1.41;68.17
35878;BME280;21982;49.804;24.072;2023-04-06T06:15:31;96528.91;;;0.47;67.63
35878;BME280;21982;49.804;24.072;2023-04-06T06:17:56;96780.09;;;2.11;67.96
35878;BME280;21982;49.804;24.072;2023-04-06T06:20:22;96602.03;;;1.18;67.11
35878;BME280;21982;49.804;24.072;2023-04-06T06:22:47;96578.28;;;1.04;67.47
35878;BME280;21982;49.804;24.072;2023-04-06T06:25:13;96766.84;;;2.40;66.90
35878;BME280;21982;49.804;24.072;2023-04-06T06:27:40;96781.06;;;2.45;67.27
35878;BME280;21982;49.804;24.072;2023-04-06T06:30:07;96644.09;;;1.86;66.86
35878;BME280;21982;49.804;24.072;2023-04-06T06:32:32;96633.59;;;1.60;67.07
35878;BME280;21982;49.804;24.072;2023-04-06T06:34:58;96717.56;;;2.09;66.91
35878;BME280;21982;49.804;24.072;2023-04-06T06:37:23;96726.47;;;2.16;67.11
35878;BME280;21982;49.804;24.072;2023-04-06T06:39:48;96739.66;;;2.15;67.30
35878;BME280;21982;49.804;24.072;2023-04-06T06:42:14;96712.66;;;1.88;67.56
35878;BME280;21982;49.804;24.072;2023-04-06T06:44:39;96763.78;;;2.26;66.79
35878;BME280;21982;49.804;24.072;2023-04-06T06:47:05;96680.94;;;1.83;67.33
35878;BME280;21982;49.804;24.072;2023-04-06T06:49:30;96753.41;;;2.34;67.43
35878;BME280;21982;49.804;24.072;2023-04-06T06:51:56;96743.47;;;2.38;67.02
35878;BME280;21982;49.804;24.072;2023-04-06T06:54:21;96748.44;;;2.49;67.03
35878;BME280;21982;49.804;24.072;2023-04-06T06:56:46;96703.78;;;2.17;66.83
35878;BME280;21982;49.804;24.072;2023-04-06T06:59:12;96740.28;;;2.26;66.70
35878;BME280;21982;49.804;24.072;2023-04-06T07:01:37;96758.84;;;2.41;67.24
35878;BME280;21982;49.804;24.072;2023-04-06T07:04:03;96756.69;;;2.37;66.69
35878;BME280;21982;49.804;24.072;2023-04-06T07:06:28;96707.31;;;2.08;66.65
35878;BME280;21982;49.804;24.072;2023-04-06T07:08:53;96722.34;;;2.31;67.31
35878;BME280;21982;49.804;24.072;2023-04-06T07:11:20;96757.03;;;2.59;66.85
35878;BME280;21982;49.804;24.072;2023-04-06T07:13:46;96683.84;;;2.16;67.10
35878;BME280;21982;49.804;24.072;2023-04-06T07:16:11;96731.91;;;2.41;66.71
35878;BME280;21982;49.804;24.072;2023-04-06T07:18:36;96647.63;;;1.95;67.10
35878;BME280;21982;49.804;24.072;2023-04-06T07:21:02;96751.44;;;2.54;66.58
35878;BME280;21982;49.804;24.072;2023-04-06T07:23:27;96620.84;;;1.75;67.23
35878;BME280;21982;49.804;24.072;2023-04-06T07:25:53;96577.75;;;1.53;67.32
35878;BME280;21982;49.804;24.072;2023-04-06T07:28:19;96467.41;;;0.82;66.96
35878;BME280;21982;49.804;24.072;2023-04-06T07:30:45;96623.97;;;1.96;67.23
35878;BME280;21982;49.804;24.072;2023-04-06T07:33:10;96752.75;;;2.76;67.27
35878;BME280;21982;49.804;24.072;2023-04-06T07:35:36;96739.41;;;2.61;66.80
35878;BME280;21982;49.804;24.072;2023-04-06T07:38:02;96746.38;;;2.79;66.95
35878;BME280;21982;49.804;24.072;2023-04-06T07:40:29;96686.44;;;2.33;66.81
35878;BME280;21982;49.804;24.072;2023-04-06T07:42:57;96633.81;;;2.03;66.59
35878;BME280;21982;49.804;24.072;2023-04-06T07:45:24;96741.41;;;2.93;67.09
35878;BME280;21982;49.804;24.072;2023-04-06T07:47:50;96716.34;;;2.83;66.53
35878;BME280;21982;49.804;24.072;2023-04-06T07:50:15;96712.75;;;2.84;66.24
35878;BME280;21982;49.804;24.072;2023-04-06T07:52:41;96762.50;;;2.92;66.44
35878;BME280;21982;49.804;24.072;2023-04-06T07:55:07;96535.94;;;1.63;66.49
35878;BME280;21982;49.804;24.072;2023-04-06T07:57:32;96747.91;;;2.89;66.79
35878;BME280;21982;49.804;24.072;2023-04-06T07:59:57;96606.97;;;1.92;66.29
35878;BME280;21982;49.804;24.072;2023-04-06T08:02:23;96727.75;;;2.82;66.47
35878;BME280;21982;49.804;24.072;2023-04-06T08:04:48;96708.50;;;2.83;66.19
35878;BME280;21982;49.804;24.072;2023-04-06T08:07:14;96696.53;;;2.80;66.66
35878;BME280;21982;49.804;24.072;2023-04-06T08:09:40;96739.53;;;3.03;66.14
35878;BME280;21982;49.804;24.072;2023-04-06T08:12:06;96723.97;;;3.02;66.25
35878;BME280;21982;49.804;24.072;2023-04-06T08:14:32;96728.84;;;2.97;66.81
35878;BME280;21982;49.804;24.072;2023-04-06T08:16:57;96712.19;;;2.72;67.16
35878;BME280;21982;49.804;24.072;2023-04-06T08:19:22;96665.09;;;2.38;66.50
35878;BME280;21982;49.804;24.072;2023-04-06T08:21:48;96746.19;;;2.98;66.79
35878;BME280;21982;49.804;24.072;2023-04-06T08:24:14;96739.16;;;2.98;66.98
35878;BME280;21982;49.804;24.072;2023-04-06T08:26:40;96743.94;;;3.03;66.63
35878;BME280;21982;49.804;24.072;2023-04-06T08:29:05;96748.59;;;2.91;66.60
35878;BME280;21982;49.804;24.072;2023-04-06T08:31:35;96731.31;;;2.73;66.90
35878;BME280;21982;49.804;24.072;2023-04-06T08:34:03;96749.25;;;2.93;66.59
35878;BME280;21982;49.804;24.072;2023-04-06T08:36:29;96721.41;;;2.84;66.91
35878;BME280;21982;49.804;24.072;2023-04-06T08:38:55;96693.09;;;2.80;66.91
35878;BME280;21982;49.804;24.072;2023-04-06T08:41:20;96713.88;;;3.07;66.88
35878;BME280;21982;49.804;24.072;2023-04-06T08:43:58;96730.91;;;3.11;66.38
35878;BME280;21982;49.804;24.072;2023-04-06T08:46:24;96726.50;;;3.12;66.31
35878;BME280;21982;49.804;24.072;2023-04-06T08:48:55;96725.84;;;3.18;66.39
35878;BME280;21982;49.804;24.072;2023-04-06T08:51:23;96694.28;;;3.19;66.81
35878;BME280;21982;49.804;24.072;2023-04-06T08:53:49;96572.38;;;2.42;66.53
35878;BME280;21982;49.804;24.072;2023-04-06T08:56:15;96700.59;;;3.34;66.03
35878;BME280;21982;49.804;24.072;2023-04-06T08:58:41;96633.69;;;2.90;66.27
35878;BME280;21982;49.804;24.072;2023-04-06T09:01:08;96670.63;;;3.29;66.19
35878;BME280;21982;49.804;24.072;2023-04-06T09:03:40;96705.53;;;3.54;65.93
35878;BME280;21982;49.804;24.072;2023-04-06T09:06:06;96681.06;;;3.21;66.07
35878;BME280;21982;49.804;24.072;2023-04-06T09:08:35;96708.97;;;3.46;65.90
35878;BME280;21982;49.804;24.072;2023-04-06T09:11:03;96703.88;;;3.36;66.00
35878;BME280;21982;49.804;24.072;2023-04-06T09:13:29;96709.06;;;3.28;65.93
35878;BME280;21982;49.804;24.072;2023-04-06T09:16:18;96678.59;;;3.11;66.36
35878;BME280;21982;49.804;24.072;2023-04-06T09:18:44;96721.06;;;3.39;66.22
35878;BME280;21982;49.804;24.072;2023-04-06T09:21:12;96668.59;;;3.15;66.35
35878;BME280;21982;49.804;24.072;2023-04-06T09:23:38;96607.84;;;2.87;65.65
35878;BME280;21982;49.804;24.072;2023-04-06T09:26:05;96726.50;;;3.54;66.06
35878;BME280;21982;49.804;24.072;2023-04-06T09:28:51;96721.59;;;3.59;65.72
35878;BME280;21982;49.804;24.072;2023-04-06T09:31:22;96582.78;;;2.68;65.60
35878;BME280;21982;49.804;24.072;2023-04-06T09:33:48;96384.53;;;1.03;65.24
35878;BME280;21982;49.804;24.072;2023-04-06T09:36:14;96717.25;;;3.33;65.64
35878;BME280;21982;49.804;24.072;2023-04-06T09:38:57;96751.09;;;3.27;66.12
35878;BME280;21982;49.804;24.072;2023-04-06T09:41:33;96703.09;;;3.10;65.77
35878;BME280;21982;49.804;24.072;2023-04-06T09:44:08;96706.34;;;3.04;66.72
35878;BME280;21982;49.804;24.072;2023-04-06T09:46:43;96425.91;;;1.06;66.62
35878;BME280;21982;49.804;24.072;2023-04-06T09:49:10;96718.53;;;2.95;67.28
35878;BME280;21982;49.804;24.072;2023-04-06T09:51:46;96683.69;;;2.87;66.61
35878;BME280;21982;49.804;24.072;2023-04-06T09:54:21;96713.56;;;3.10;66.96
35878;BME280;21982;49.804;24.072;2023-04-06T09:57:00;96696.03;;;3.02;66.70
35878;BME280;21982;49.804;24.072;2023-04-06T09:59:50;96712.75;;;3.10;67.13
35878;BME280;21982;49.804;24.072;2023-04-06T10:05:02;96728.63;;;3.16;67.10
35878;BME280;21982;49.804;24.072;2023-04-06T10:07:31;96543.41;;;2.01;66.34
35878;BME280;21982;49.804;24.072;2023-04-06T10:10:01;96620.19;;;2.43;66.52
35878;BME280;21982;49.804;24.072;2023-04-06T10:12:27;96727.28;;;3.12;67.05
35878;BME280;21982;49.804;24.072;2023-04-06T10:14:53;96469.06;;;1.62;67.29
35878;BME280;21982;49.804;24.072;2023-04-06T10:17:22;96592.94;;;2.45;67.35
35878;BME280;21982;49.804;24.072;2023-04-06T10:19:55;96511.94;;;1.85;66.75
35878;BME280;21982;49.804;24.072;2023-04-06T10:22:41;96724.41;;;3.23;66.81
35878;BME280;21982;49.804;24.072;2023-04-06T10:25:08;96715.28;;;3.27;67.34
35878;BME280;21982;49.804;24.072;2023-04-06T10:27:34;96715.94;;;3.29;67.10
35878;BME280;21982;49.804;24.072;2023-04-06T10:30:05;96658.09;;;2.98;66.99
35878;BME280;21982;49.804;24.072;2023-04-06T10:32:37;96615.19;;;2.83;67.33
35878;BME280;21982;49.804;24.072;2023-04-06T10:35:09;96683.38;;;3.24;67.40
35878;BME280;21982;49.804;24.072;2023-04-06T10:37:53;96718.13;;;3.42;66.85
35878;BME280;21982;49.804;24.072;2023-04-06T10:40:25;96715.50;;;3.50;67.41
35878;BME280;21982;49.804;24.072;2023-04-06T10:42:52;96619.63;;;2.91;67.45
35878;BME280;21982;49.804;24.072;2023-04-06T10:45:22;96724.72;;;3.62;66.86
35878;BME280;21982;49.804;24.072;2023-04-06T10:47:52;96590.38;;;2.87;66.93
35878;BME280;21982;49.804;24.072;2023-04-06T10:50:20;96711.44;;;3.56;66.97
35878;BME280;21982;49.804;24.072;2023-04-06T10:53:00;96701.50;;;3.67;66.57
35878;BME280;21982;49.804;24.072;2023-04-06T10:55:29;96699.41;;;3.79;66.98
35878;BME280;21982;49.804;24.072;2023-04-06T10:57:55;96723.31;;;3.84;67.02
35878;BME280;21982;49.804;24.072;2023-04-06T11:00:20;96660.72;;;3.57;67.10
35878;BME280;21982;49.804;24.072;2023-04-06T11:02:46;96701.06;;;3.80;66.86
35878;BME280;21982;49.804;24.072;2023-04-06T11:05:11;96562.94;;;2.91;67.25
35878;BME280;21982;49.804;24.072;2023-04-06T11:07:39;96643.22;;;3.41;66.78
35878;BME280;21982;49.804;24.072;2023-04-06T11:10:05;96699.72;;;3.68;66.70
35878;BME280;21982;49.804;24.072;2023-04-06T11:12:30;96691.28;;;3.48;66.81
35878;BME280;21982;49.804;24.072;2023-04-06T11:15:03;96718.38;;;3.73;67.27
35878;BME280;21982;49.804;24.072;2023-04-06T11:17:34;96628.56;;;3.22;66.84
35878;BME280;21982;49.804;24.072;2023-04-06T11:20:00;96718.06;;;3.84;66.85
35878;BME280;21982;49.804;24.072;2023-04-06T11:22:26;96668.94;;;3.62;66.57
35878;BME280;21982;49.804;24.072;2023-04-06T11:24:52;96719.69;;;3.85;66.46
35878;BME280;21982;49.804;24.072;2023-04-06T11:27:21;96638.41;;;3.28;66.49
35878;BME280;21982;49.804;24.072;2023-04-06T11:29:46;96676.41;;;3.49;66.88
35878;BME280;21982;49.804;24.072;2023-04-06T11:32:20;96727.88;;;3.74;66.55
35878;BME280;21982;49.804;24.072;2023-04-06T11:34:46;96335.78;;;1.21;66.90
35878;BME280;21982;49.804;24.072;2023-04-06T11:37:12;96656.38;;;3.23;67.07
35878;BME280;21982;49.804;24.072;2023-04-06T11:39:39;96657.28;;;3.40;67.44
35878;BME280;21982;49.804;24.072;2023-04-06T11:42:06;96710.50;;;3.65;67.14
35878;BME280;21982;49.804;24.072;2023-04-06T11:44:33;96442.53;;;2.00;67.52
35878;BME280;21982;49.804;24.072;2023-04-06T11:47:00;96711.84;;;3.77;67.00
35878;BME280;21982;49.804;24.072;2023-04-06T11:49:30;96711.84;;;3.85;67.74
35878;BME280;21982;49.804;24.072;2023-04-06T11:51:56;96434.41;;;2.12;67.35
35878;BME280;21982;49.804;24.072;2023-04-06T11:54:36;96716.13;;;3.94;67.13
35878;BME280;21982;49.804;24.072;2023-04-06T11:57:03;96632.56;;;3.43;67.33
35878;BME280;21982;49.804;24.072;2023-04-06T11:59:31;96646.97;;;3.39;67.33
35878;BME280;21982;49.804;24.072;2023-04-06T12:01:57;96716.59;;;3.90;67.17
35878;BME280;21982;49.804;24.072;2023-04-06T12:04:23;96705.31;;;3.89;67.40
35878;BME280;21982;49.804;24.072;2023-04-06T12:06:48;96476.84;;;2.48;66.96
35878;BME280;21982;49.804;24.072;2023-04-06T12:09:14;96441.16;;;2.22;67.20
35878;BME280;21982;49.804;24.072;2023-04-06T12:11:40;96703.00;;;3.86;67.15
35878;BME280;21982;49.804;24.072;2023-04-06T12:14:06;96702.38;;;3.92;67.45
35878;BME280;21982;49.804;24.072;2023-04-06T12:16:33;96574.28;;;3.08;67.36
35878;BME280;21982;49.804;24.072;2023-04-06T12:18:59;96706.28;;;3.88;67.23
35878;BME280;21982;49.804;24.072;2023-04-06T12:21:26;96699.06;;;3.82;67.31
35878;BME280;21982;49.804;24.072;2023-04-06T12:23:51;96440.94;;;2.08;67.75
35878;BME280;21982;49.804;24.072;2023-04-06T12:26:17;96704.59;;;3.63;68.02
35878;BME280;21982;49.804;24.072;2023-04-06T12:28:42;96616.09;;;3.00;68.12
35878;BME280;21982;49.804;24.072;2023-04-06T12:31:14;96699.66;;;3.52;68.48
35878;BME280;21982;49.804;24.072;2023-04-06T12:33:40;96705.13;;;3.24;68.14
35878;BME280;21982;49.804;24.072;2023-04-06T12:36:12;96595.06;;;2.76;68.20
35878;BME280;21982;49.804;24.072;2023-04-06T12:38:39;96700.59;;;3.34;68.75
35878;BME280;21982;49.804;24.072;2023-04-06T12:41:06;96615.03;;;2.77;68.64
35878;BME280;21982;49.804;24.072;2023-04-06T12:43:31;96658.59;;;3.02;68.41
35878;BME280;21982;49.804;24.072;2023-04-06T12:46:00;96717.31;;;3.42;68.53
35878;BME280;21982;49.804;24.072;2023-04-06T12:48:26;96603.09;;;2.82;68.88
35878;BME280;21982;49.804;24.072;2023-04-06T12:51:00;96697.84;;;3.52;69.06
35878;BME280;21982;49.804;24.072;2023-04-06T12:53:26;96708.78;;;3.48;69.14
35878;BME280;21982;49.804;24.072;2023-04-06T12:55:52;96695.22;;;3.44;68.80
35878;BME280;21982;49.804;24.072;2023-04-06T12:58:19;96683.88;;;3.27;68.77
35878;BME280;21982;49.804;24.072;2023-04-06T13:00:44;96538.06;;;2.45;69.34
35878;BME280;21982;49.804;24.072;2023-04-06T13:03:10;96685.38;;;3.38;69.26
35878;BME280;21982;49.804;24.072;2023-04-06T13:05:45;96662.13;;;3.27;68.97
35878;BME280;21982;49.804;24.072;2023-04-06T13:08:11;96565.88;;;2.54;68.88
35878;BME280;21982;49.804;24.072;2023-04-06T13:10:37;96524.28;;;2.27;69.26
35878;BME280;21982;49.804;24.072;2023-04-06T13:13:03;96282.31;;;0.48;69.38
35878;BME280;21982;49.804;24.072;2023-04-06T13:15:28;96685.03;;;3.33;69.71
35878;BME280;21982;49.804;24.072;2023-04-06T13:17:55;96635.56;;;3.06;69.77
35878;BME280;21982;49.804;24.072;2023-04-06T13:20:20;96685.06;;;3.41;69.65